Time;durP1;ratioP1;P1;durP2;ratioP2;P2;SDS_P1;SDS_P2;PMS_P1;PMS_P2;Temp;Humidity;BMP_temperature;BMP_pressure;BME280_temperature;BME280_humidity;BME280_pressure;Samples;Min_cycle;Max_cycle;Signal;HPM_P1;HPM_P2
2022/06/10 00:00:26;;;;;;;7.05;3.15;;;22.20;87.20;;;;;;5062348;28;20398;-62
2022/06/10 00:02:52;;;;;;;7.47;3.00;;;22.10;87.00;;;;;;5062994;28;20056;-63
2022/06/10 00:05:24;;;;;;;8.93;3.67;;;22.10;84.20;;;;;;5075759;28;20089;-63
2022/06/10 00:07:51;;;;;;;8.15;3.58;;;22.10;87.00;;;;;;5053912;28;20105;-62
2022/06/10 00:10:19;;;;;;;8.52;2.75;;;22.00;87.10;;;;;;5056751;28;20076;-63
2022/06/10 00:12:45;;;;;;;9.35;3.03;;;21.90;86.70;;;;;;5073669;28;20106;-63
2022/06/10 00:15:11;;;;;;;6.35;3.30;;;22.20;87.00;;;;;;5055964;28;20061;-63
2022/06/10 00:17:37;;;;;;;8.63;3.20;;;22.20;84.00;;;;;;5055248;28;20049;-63
2022/06/10 00:20:03;;;;;;;8.45;2.90;;;22.00;86.80;;;;;;5051901;28;20049;-63
2022/06/10 00:22:29;;;;;;;7.63;3.05;;;22.20;86.80;;;;;;5050183;28;20045;-63
2022/06/10 00:24:55;;;;;;;10.10;3.53;;;22.20;86.90;;;;;;5052884;28;20506;-63
2022/06/10 00:27:21;;;;;;;7.47;2.70;;;22.10;86.80;;;;;;5055030;28;20123;-63
2022/06/10 00:29:47;;;;;;;8.02;2.78;;;22.10;86.70;;;;;;5050720;28;20117;-63
2022/06/10 00:32:14;;;;;;;6.63;3.40;;;22.00;86.50;;;;;;5051100;28;20053;-63
2022/06/10 00:34:40;;;;;;;8.15;3.15;;;22.10;86.80;;;;;;5055218;28;20044;-63
2022/06/10 00:37:05;;;;;;;6.63;2.75;;;22.00;86.50;;;;;;5052279;28;20049;-63
2022/06/10 00:39:33;;;;;;;7.95;3.03;;;22.00;86.40;;;;;;5052654;28;20052;-63
2022/06/10 00:41:59;;;;;;;8.13;2.85;;;;;;;;;;5050585;28;20070;-64
2022/06/10 00:44:46;;;;;;;7.72;3.47;;;22.00;86.40;;;;;;5052299;28;20051;-63
2022/06/10 00:47:37;;;;;;;7.15;2.85;;;22.00;83.20;;;;;;5049918;28;20582;-62
2022/06/10 00:50:26;;;;;;;8.15;3.03;;;22.00;86.30;;;;;;5046040;28;20050;-62
2022/06/10 00:52:55;;;;;;;9.25;3.28;;;22.20;86.50;;;;;;5048355;28;20509;-63
2022/06/10 00:55:28;;;;;;;6.07;2.78;;;22.00;83.80;;;;;;5053941;28;20051;-62
2022/06/10 00:58:00;;;;;;;7.07;2.78;;;21.90;86.30;;;;;;5049305;28;20033;-62
2022/06/10 01:00:26;;;;;;;8.32;3.10;;;21.90;82.20;;;;;;5054232;28;20055;-63
2022/06/10 01:02:52;;;;;;;6.13;2.60;;;;;;;;;;5049229;28;20123;-63
2022/06/10 01:05:20;;;;;;;7.45;2.90;;;21.90;86.20;;;;;;5038038;28;20045;-62
2022/06/10 01:07:50;;;;;;;6.35;3.13;;;21.70;86.00;;;;;;5034205;28;20037;-63
2022/06/10 01:10:16;;;;;;;6.57;3.03;;;21.90;86.10;;;;;;5044116;28;20503;-63
2022/06/10 01:12:51;;;;;;;7.78;2.97;;;21.90;86.00;;;;;;5047861;28;20166;-64
2022/06/10 01:15:36;;;;;;;8.30;3.03;;;22.10;86.30;;;;;;5068917;28;20418;-64
2022/06/10 01:18:39;;;;;;;6.22;3.15;;;21.90;86.00;;;;;;5052353;28;20087;-64
2022/06/10 01:21:26;;;;;;;6.78;3.10;;;21.90;81.20;;;;;;5068546;28;20044;-62
2022/06/10 01:24:18;;;;;;;6.22;2.80;;;21.80;86.00;;;;;;5067097;28;20105;-63
2022/06/10 01:29:37;;;;;;;7.63;2.72;;;22.00;82.30;;;;;;5072113;28;20040;-62
2022/06/10 01:32:11;;;;;;;6.25;3.00;;;21.90;82.70;;;;;;5072750;28;20524;-63
2022/06/10 01:35:11;;;;;;;8.05;3.40;;;21.90;81.80;;;;;;5057624;28;20036;-63
2022/06/10 01:37:40;;;;;;;6.38;2.65;;;21.80;85.90;;;;;;5073651;28;20079;-63
2022/06/10 01:40:09;;;;;;;9.68;3.00;;;22.00;85.90;;;;;;5054074;28;20051;-64
2022/06/10 01:42:48;;;;;;;6.78;2.72;;;21.60;85.80;;;;;;5071053;28;20041;-63
2022/06/10 01:45:35;;;;;;;6.90;2.60;;;21.70;85.80;;;;;;5051470;28;20189;-64
2022/06/10 01:48:32;;;;;;;7.20;3.05;;;21.90;86.10;;;;;;5057418;28;20119;-63
2022/06/10 01:51:10;;;;;;;7.75;3.05;;;21.80;85.80;;;;;;5020749;28;20053;-63
2022/06/10 01:53:44;;;;;;;5.78;2.72;;;21.70;83.20;;;;;;5018240;28;20107;-63
2022/06/10 01:56:18;;;;;;;6.53;2.75;;;21.60;85.70;;;;;;5014211;28;20060;-62
2022/06/10 01:58:51;;;;;;;6.25;2.63;;;21.70;81.00;;;;;;5017248;28;20045;-63
2022/06/10 02:01:19;;;;;;;6.75;2.90;;;22.00;85.80;;;;;;4998627;28;20061;-62
2022/06/10 02:03:51;;;;;;;8.77;3.58;;;21.90;85.70;;;;;;5033004;28;20048;-62
2022/06/10 02:06:24;;;;;;;6.75;2.80;;;21.70;83.50;;;;;;5032941;28;20510;-63
2022/06/10 02:08:55;;;;;;;6.57;2.45;;;21.80;80.90;;;;;;5018107;28;20053;-62
2022/06/10 02:11:22;;;;;;;6.63;3.10;;;21.90;82.40;;;;;;5030431;28;20092;-65
2022/06/10 02:13:54;;;;;;;6.82;2.80;;;21.80;85.50;;;;;;5050139;28;20056;-64
2022/06/10 02:16:27;;;;;;;7.20;2.65;;;21.90;85.50;;;;;;5032976;28;20053;-63
2022/06/10 02:19:00;;;;;;;7.07;3.10;;;21.80;85.40;;;;;;5034191;28;20517;-62
2022/06/10 02:21:30;;;;;;;6.20;2.65;;;21.50;81.10;;;;;;5050277;28;20071;-62
2022/06/10 02:24:17;;;;;;;6.05;3.03;;;21.60;85.00;;;;;;5033424;28;20091;-63
2022/06/10 02:26:43;;;;;;;13.30;3.60;;;21.70;85.20;;;;;;5037899;28;20092;-62
2022/06/10 02:29:12;;;;;;;6.95;3.13;;;21.60;82.00;;;;;;5041587;28;20068;-64
2022/06/10 02:31:47;;;;;;;8.80;3.45;;;21.80;82.70;;;;;;5034180;28;20106;-63
2022/06/10 02:34:13;;;;;;;8.30;3.60;;;21.70;85.20;;;;;;5032854;28;20502;-63
2022/06/10 02:37:06;;;;;;;8.77;3.53;;;21.90;81.70;;;;;;5035429;28;20087;-62
2022/06/10 02:39:36;;;;;;;;;;;21.70;81.30;;;;;;5053681;28;20041;-63
2022/06/10 02:42:14;;;;;;;7.10;3.03;;;21.50;81.20;;;;;;5050389;28;19928;-63
2022/06/10 02:44:49;;;;;;;9.65;3.20;;;21.70;85.20;;;;;;5062396;28;20510;-63
2022/06/10 02:47:15;;;;;;;6.43;2.97;;;21.70;84.90;;;;;;5046624;28;20036;-62
2022/06/10 02:49:41;;;;;;;7.38;3.15;;;21.80;85.20;;;;;;5076852;28;20052;-63
2022/06/10 02:52:09;;;;;;;6.53;3.05;;;21.70;85.10;;;;;;5041673;28;20041;-62
2022/06/10 02:54:37;;;;;;;8.30;3.75;;;21.70;85.10;;;;;;5077002;28;20044;-63
2022/06/10 02:57:17;;;;;;;6.47;3.00;;;21.60;82.50;;;;;;5076066;28;20098;-63
2022/06/10 03:02:49;;;;;;;9.10;3.25;;;21.50;82.40;;;;;;5076618;28;20583;-63
2022/06/10 03:05:24;;;;;;;8.05;3.50;;;21.70;81.30;;;;;;5075949;28;20053;-63
2022/06/10 03:08:17;;;;;;;6.15;2.88;;;21.70;82.10;;;;;;5076653;28;20044;-63
2022/06/10 03:10:43;;;;;;;8.25;3.35;;;;;;;;;;5070629;28;20048;-64
2022/06/10 03:13:33;;;;;;;6.78;3.42;;;21.60;85.10;;;;;;5071106;28;20414;-64
2022/06/10 03:16:28;;;;;;;7.95;2.97;;;21.70;85.10;;;;;;5043490;28;20052;-65
2022/06/10 03:19:33;;;;;;;6.90;2.80;;;21.50;80.30;;;;;;5073378;28;20084;-63
2022/06/10 03:22:34;;;;;;;7.90;2.97;;;21.50;80.30;;;;;;5075350;28;20055;-63
2022/06/10 03:25:02;;;;;;;6.82;2.72;;;21.70;85.20;;;;;;5061691;28;20053;-63
2022/06/10 03:27:34;;;;;;;8.38;3.20;;;21.60;85.10;;;;;;5076495;28;20097;-64
2022/06/10 03:30:06;;;;;;;8.38;3.15;;;21.30;84.90;;;;;;5054024;28;20375;-63
2022/06/10 03:32:52;;;;;;;8.40;3.03;;;21.30;82.10;;;;;;5057954;28;20059;-63
2022/06/10 03:35:21;;;;;;;8.05;2.90;;;21.60;81.80;;;;;;5056028;28;20128;-63
2022/06/10 03:37:47;;;;;;;8.13;3.33;;;21.60;85.00;;;;;;5032795;28;20179;-64
2022/06/10 03:40:24;;;;;;;6.55;3.00;;;21.60;84.80;;;;;;5044642;28;20520;-63
2022/06/10 03:42:52;;;;;;;7.45;3.28;;;21.50;85.00;;;;;;5042762;28;20048;-62
2022/06/10 03:45:20;;;;;;;8.50;3.55;;;21.60;81.70;;;;;;5023157;28;20483;-63
2022/06/10 03:47:46;;;;;;;8.90;3.20;;;21.70;84.90;;;;;;5077535;28;20450;-63
2022/06/10 03:50:14;;;;;;;6.60;3.03;;;21.70;82.10;;;;;;5076099;28;20068;-63
2022/06/10 03:52:40;;;;;;;7.88;3.25;;;;;;;;;;5044235;28;20040;-64
2022/06/10 03:55:07;;;;;;;7.28;2.78;;;21.70;80.00;;;;;;5073070;28;20041;-62
2022/06/10 03:57:33;;;;;;;7.22;2.63;;;22.00;84.80;;;;;;5073144;28;20483;-62
2022/06/10 03:59:58;;;;;;;6.53;2.63;;;21.70;81.80;;;;;;5057720;28;20087;-62
2022/06/10 04:02:24;;;;;;;6.55;2.67;;;21.70;81.70;;;;;;5070763;28;20104;-61
2022/06/10 04:04:51;;;;;;;5.93;2.80;;;;;;;;;;5056459;28;20052;-62
2022/06/10 04:07:17;;;;;;;7.45;2.75;;;21.90;84.70;;;;;;5074333;28;20047;-62
2022/06/10 04:09:44;;;;;;;6.10;2.92;;;21.90;84.70;;;;;;5074744;28;20115;-62
2022/06/10 04:12:10;;;;;;;7.22;3.17;;;22.00;84.50;;;;;;5068121;28;20044;-63
2022/06/10 04:14:36;;;;;;;5.47;2.42;;;;;;;;;;5072088;28;20261;-63
2022/06/10 04:17:03;;;;;;;8.20;3.40;;;22.00;84.60;;;;;;5071863;28;20507;-63
2022/06/10 04:19:29;;;;;;;7.50;2.78;;;21.90;81.40;;;;;;5075537;28;20405;-64
2022/06/10 04:21:55;;;;;;;6.05;2.40;;;;;;;;;;5074735;28;20123;-64
2022/06/10 04:24:21;;;;;;;6.90;2.60;;;21.70;79.50;;;;;;5071699;28;20048;-64
2022/06/10 04:26:47;;;;;;;6.22;2.33;;;22.00;84.30;;;;;;5074326;28;20106;-63
2022/06/10 04:29:13;;;;;;;6.18;2.60;;;21.80;84.10;;;;;;5054397;28;20044;-64
2022/06/10 04:31:39;;;;;;;5.28;2.40;;;21.90;84.10;;;;;;5075339;28;20425;-64
2022/06/10 04:34:05;;;;;;;7.07;2.72;;;21.80;84.00;;;;;;5053669;28;20109;-62
2022/06/10 04:36:33;;;;;;;7.28;2.47;;;22.10;79.40;;;;;;5089290;28;20052;-62
2022/06/10 04:38:59;;;;;;;6.30;2.40;;;22.00;84.10;;;;;;5073699;28;20386;-62
2022/06/10 04:41:25;;;;;;;8.38;2.58;;;22.10;84.10;;;;;;5070949;28;20041;-63
2022/06/10 04:43:50;;;;;;;8.23;2.50;;;21.70;83.80;;;;;;5071542;28;20452;-62
2022/06/10 04:46:29;;;;;;;7.45;2.60;;;22.00;84.00;;;;;;5071254;28;20051;-62
2022/06/10 04:48:54;;;;;;;7.05;2.50;;;22.20;80.10;;;;;;5058161;28;20044;-63
2022/06/10 04:51:20;;;;;;;7.13;2.30;;;22.20;83.90;;;;;;5074063;28;20049;-64
2022/06/10 04:53:46;;;;;;;4.45;2.08;;;22.10;83.80;;;;;;5074043;28;20406;-63
2022/06/10 04:56:12;;;;;;;7.70;2.80;;;22.40;81.10;;;;;;5071129;28;20043;-64
2022/06/10 04:58:38;;;;;;;5.93;2.38;;;22.70;83.30;;;;;;5056936;28;20476;-63
2022/06/10 05:01:03;;;;;;;5.50;2.20;;;22.70;82.90;;;;;;5069444;28;20052;-63
2022/06/10 05:03:29;;;;;;;4.53;1.88;;;22.80;80.00;;;;;;5041095;28;20037;-64
2022/06/10 05:05:55;;;;;;;7.95;2.47;;;23.10;82.10;;;;;;5056129;28;20079;-63
2022/06/10 05:08:20;;;;;;;5.97;2.13;;;23.10;79.10;;;;;;5074250;28;20227;-64
2022/06/10 05:10:47;;;;;;;4.68;2.13;;;23.60;81.60;;;;;;5055563;28;20040;-64
2022/06/10 05:13:16;;;;;;;6.20;1.95;;;23.50;81.10;;;;;;5063587;28;20076;-64
2022/06/10 05:15:43;;;;;;;6.28;2.25;;;23.70;78.70;;;;;;5070188;28;20056;-64
2022/06/10 05:18:09;;;;;;;7.72;2.28;;;23.80;80.70;;;;;;5069183;28;20056;-64
2022/06/10 05:20:39;;;;;;;5.63;2.25;;;23.70;80.10;;;;;;5040507;28;20049;-64
2022/06/10 05:23:06;;;;;;;7.32;2.28;;;24.10;79.90;;;;;;5064488;28;20044;-64
2022/06/10 05:25:32;;;;;;;4.80;2.15;;;24.10;77.80;;;;;;5054498;28;20040;-64
2022/06/10 05:27:58;;;;;;;7.05;2.55;;;24.30;79.70;;;;;;5069923;28;20033;-64
2022/06/10 05:30:25;;;;;;;4.78;2.00;;;24.20;77.20;;;;;;5072398;28;20036;-64
2022/06/10 05:32:51;;;;;;;6.30;2.40;;;24.60;77.30;;;;;;5084516;28;20052;-64
2022/06/10 05:35:17;;;;;;;6.72;2.30;;;24.70;77.00;;;;;;5059080;28;20534;-64
2022/06/10 05:37:43;;;;;;;7.38;2.38;;;24.60;78.60;;;;;;5056498;28;20064;-64
2022/06/10 05:40:10;;;;;;;7.63;2.10;;;24.40;76.30;;;;;;5063745;28;20379;-62
2022/06/10 05:42:36;;;;;;;5.00;2.10;;;24.60;76.10;;;;;;5062739;28;20048;-62
2022/06/10 05:45:02;;;;;;;6.85;2.45;;;24.70;76.10;;;;;;5073843;28;20060;-62
2022/06/10 05:47:30;;;;;;;6.80;2.50;;;24.90;75.90;;;;;;5056126;28;20044;-62
2022/06/10 05:49:58;;;;;;;6.45;2.40;;;24.80;76.20;;;;;;5070412;28;20375;-62
2022/06/10 05:52:25;;;;;;;7.18;2.35;;;24.90;76.00;;;;;;5056077;28;20056;-62
2022/06/10 05:54:52;;;;;;;6.40;1.95;;;25.10;76.00;;;;;;5049396;28;20056;-62
2022/06/10 05:57:17;;;;;;;6.07;2.13;;;25.30;75.90;;;;;;5071644;28;20052;-63
2022/06/10 05:59:44;;;;;;;7.35;2.30;;;25.40;75.70;;;;;;5068817;28;20560;-62
2022/06/10 06:02:10;;;;;;;5.78;2.10;;;25.40;75.50;;;;;;5073425;28;20110;-62
2022/06/10 06:04:36;;;;;;;6.45;2.25;;;25.10;75.60;;;;;;5054418;28;20486;-62
2022/06/10 06:07:02;;;;;;;5.68;2.25;;;25.00;77.90;;;;;;5051868;28;20048;-64
2022/06/10 06:09:28;;;;;;;6.22;2.35;;;25.10;75.50;;;;;;5052227;28;20541;-62
2022/06/10 06:11:57;;;;;;;7.32;2.50;;;25.00;75.80;;;;;;5054338;28;20095;-62
2022/06/10 06:14:25;;;;;;;5.95;2.40;;;25.00;74.70;;;;;;5065590;28;20398;-62
2022/06/10 06:16:59;;;;;;;5.50;2.25;;;24.60;75.90;;;;;;5053086;28;20140;-62
2022/06/10 06:19:25;;;;;;;7.03;2.28;;;24.60;78.50;;;;;;5064735;28;20048;-63
2022/06/10 06:21:51;;;;;;;6.78;2.55;;;24.80;76.30;;;;;;5054631;28;20052;-62
2022/06/10 06:24:17;;;;;;;8.93;2.72;;;24.60;76.00;;;;;;5055557;28;20051;-63
2022/06/10 06:26:43;;;;;;;8.13;2.30;;;24.40;76.20;;;;;;5052551;28;20033;-63
2022/06/10 06:29:09;;;;;;;10.10;2.10;;;24.60;76.10;;;;;;5035290;28;20053;-63
2022/06/10 06:31:35;;;;;;;7.70;2.63;;;;;;;;;;5067843;28;20032;-63
2022/06/10 06:34:01;;;;;;;6.60;2.00;;;24.60;74.80;;;;;;5084327;28;20406;-63
2022/06/10 06:36:27;;;;;;;5.90;2.28;;;24.40;76.80;;;;;;5065849;28;20041;-63
2022/06/10 06:38:53;;;;;;;5.32;2.10;;;24.40;77.00;;;;;;5071900;28;20435;-63
2022/06/10 06:41:19;;;;;;;6.50;1.90;;;24.30;80.10;;;;;;5065718;28;20167;-63
2022/06/10 06:43:45;;;;;;;9.20;2.60;;;24.40;80.40;;;;;;5082438;28;20101;-63
2022/06/10 06:46:14;;;;;;;9.32;2.60;;;24.40;77.40;;;;;;5057054;28;20053;-65
2022/06/10 06:48:40;;;;;;;7.78;2.10;;;24.30;77.60;;;;;;5046723;28;20542;-62
2022/06/10 06:51:06;;;;;;;8.95;2.33;;;24.20;77.40;;;;;;5061909;28;20077;-62
2022/06/10 06:53:36;;;;;;;10.70;2.70;;;24.00;77.50;;;;;;5065373;28;20095;-62
2022/06/10 06:56:03;;;;;;;7.80;2.40;;;23.90;80.70;;;;;;5072897;28;20508;-62
2022/06/10 06:58:28;;;;;;;8.65;2.80;;;24.00;77.80;;;;;;5066490;28;20048;-62
2022/06/10 07:00:55;;;;;;;10.80;3.00;;;24.10;80.90;;;;;;5070893;28;20505;-62
2022/06/10 07:03:20;;;;;;;8.13;3.42;;;24.00;77.40;;;;;;5059681;28;20114;-62
2022/06/10 07:05:47;;;;;;;8.18;2.83;;;23.80;80.90;;;;;;5073075;28;20052;-62
2022/06/10 07:08:12;;;;;;;8.27;2.85;;;23.90;78.20;;;;;;5070901;28;20482;-62
2022/06/10 07:10:38;;;;;;;12.82;3.33;;;23.70;81.20;;;;;;5072986;28;20044;-62
2022/06/10 07:13:04;;;;;;;9.63;2.80;;;23.70;80.90;;;;;;5071069;28;20387;-62
2022/06/10 07:15:30;;;;;;;9.30;3.35;;;23.40;77.80;;;;;;5081763;28;20076;-62
2022/06/10 07:17:57;;;;;;;8.82;3.08;;;23.80;81.40;;;;;;5076378;28;20123;-62
2022/06/10 07:20:26;;;;;;;9.95;3.22;;;23.70;81.50;;;;;;5072847;28;20093;-63
2022/06/10 07:22:52;;;;;;;11.07;2.88;;;23.70;78.80;;;;;;5056935;28;20097;-62
2022/06/10 07:25:19;;;;;;;7.47;3.17;;;23.60;78.50;;;;;;5068165;28;20402;-62
2022/06/10 07:27:44;;;;;;;9.48;2.70;;;23.50;82.20;;;;;;5071422;28;20036;-62
2022/06/10 07:30:12;;;;;;;7.80;3.00;;;23.50;81.90;;;;;;5070225;28;20190;-62
2022/06/10 07:32:39;;;;;;;10.10;2.72;;;23.50;81.90;;;;;;5057497;28;20098;-62
2022/06/10 07:35:05;;;;;;;10.02;2.88;;;23.50;82.10;;;;;;5057344;28;20048;-62
2022/06/10 07:37:31;;;;;;;10.02;3.08;;;23.70;78.60;;;;;;5075842;28;20051;-62
2022/06/10 07:39:57;;;;;;;10.23;3.08;;;23.60;79.00;;;;;;5073170;28;20120;-62
2022/06/10 07:42:23;;;;;;;9.30;2.65;;;23.70;82.60;;;;;;5076504;28;20469;-62
2022/06/10 07:44:48;;;;;;;8.18;2.65;;;23.40;81.80;;;;;;5076032;28;20109;-62
2022/06/10 07:47:14;;;;;;;8.88;2.60;;;23.60;78.70;;;;;;5080770;28;20052;-62
2022/06/10 07:49:40;;;;;;;9.25;2.42;;;23.50;82.20;;;;;;5074684;28;20053;-62
2022/06/10 07:52:06;;;;;;;8.63;2.95;;;23.80;82.20;;;;;;5073487;28;20048;-62
2022/06/10 07:54:33;;;;;;;7.18;2.50;;;23.60;79.00;;;;;;5075616;28;20037;-62
2022/06/10 07:57:00;;;;;;;7.57;2.58;;;23.60;82.00;;;;;;5044726;28;20102;-62
2022/06/10 07:59:26;;;;;;;6.75;2.53;;;23.70;82.80;;;;;;5073509;28;20055;-62
2022/06/10 08:01:51;;;;;;;11.95;3.00;;;23.60;82.30;;;;;;5075650;28;20543;-61
2022/06/10 08:04:17;;;;;;;9.85;4.07;;;23.80;82.50;;;;;;5077661;28;20074;-67
2022/06/10 08:06:45;;;;;;;9.77;3.28;;;23.50;82.30;;;;;;5072885;28;20052;-62
2022/06/10 08:09:13;;;;;;;7.07;2.78;;;23.60;82.60;;;;;;5060902;28;20186;-62
2022/06/10 08:11:39;;;;;;;10.10;2.60;;;23.60;83.00;;;;;;5055643;28;20044;-63
2022/06/10 08:14:05;;;;;;;9.35;2.42;;;23.40;79.60;;;;;;5056248;28;20060;-62
2022/06/10 08:16:32;;;;;;;7.93;3.13;;;23.40;82.90;;;;;;5055601;28;20146;-63
2022/06/10 08:18:57;;;;;;;11.48;3.10;;;23.30;80.20;;;;;;5071911;28;20046;-62
2022/06/10 08:24:07;;;;;;;8.73;3.17;;;23.40;83.40;;;;;;5070826;28;20126;-62
2022/06/10 08:26:34;;;;;;;7.47;3.55;;;23.30;80.30;;;;;;5062520;28;20506;-62
2022/06/10 08:29:00;;;;;;;11.68;3.85;;;23.30;83.90;;;;;;5071351;28;20064;-62
2022/06/10 08:31:26;;;;;;;9.60;3.80;;;23.30;84.10;;;;;;5075854;28;20044;-62
2022/06/10 08:33:52;;;;;;;8.40;3.00;;;23.10;84.20;;;;;;5074930;28;20060;-64
2022/06/10 08:36:18;;;;;;;8.90;3.55;;;23.30;81.40;;;;;;5072880;28;20165;-64
2022/06/10 08:38:44;;;;;;;9.68;3.42;;;23.10;84.30;;;;;;5060945;28;20040;-62
2022/06/10 08:41:27;;;;;;;8.10;4.20;;;23.10;84.20;;;;;;5071455;28;20113;-62
2022/06/10 08:44:05;;;;;;;10.95;4.63;;;23.00;80.60;;;;;;5055506;28;20051;-62
2022/06/10 08:46:55;;;;;;;10.23;3.88;;;23.30;84.80;;;;;;5057858;28;20052;-61
2022/06/10 08:49:37;;;;;;;8.20;3.35;;;23.30;84.70;;;;;;5058906;28;20137;-66
2022/06/10 08:52:21;;;;;;;;;;;23.50;81.10;;;;;;5055471;28;20435;-64
2022/06/10 08:54:59;;;;;;;9.07;3.75;;;23.20;81.40;;;;;;5074871;28;19920;-68
2022/06/10 08:57:27;;;;;;;7.95;3.58;;;23.10;81.00;;;;;;5060227;28;20118;-72
2022/06/10 08:59:53;;;;;;;9.05;4.25;;;23.20;85.60;;;;;;5069882;28;20121;-62
2022/06/10 09:02:47;;;;;;;6.95;3.67;;;23.40;85.40;;;;;;5089852;28;20040;-71
2022/06/10 09:05:15;;;;;;;9.65;3.45;;;23.00;85.30;;;;;;5007088;28;20061;-64
2022/06/10 09:07:50;;;;;;;9.43;3.47;;;23.00;82.70;;;;;;4976912;28;20145;-69
2022/06/10 09:10:20;;;;;;;8.07;3.80;;;23.10;83.40;;;;;;4977126;28;20101;-72
2022/06/10 09:13:07;;;;;;;7.45;3.47;;;23.20;86.40;;;;;;4992272;28;20396;-69
2022/06/10 09:15:34;;;;;;;11.68;4.93;;;23.10;86.30;;;;;;5011551;28;20046;-76
2022/06/10 09:18:04;;;;;;;11.60;4.68;;;23.00;82.80;;;;;;4995885;28;20053;-62
2022/06/10 09:20:34;;;;;;;10.85;4.60;;;23.10;83.50;;;;;;4996014;28;20496;-62
2022/06/10 09:23:23;;;;;;;11.50;4.75;;;23.10;87.00;;;;;;4994264;28;20050;-70
2022/06/10 09:25:49;;;;;;;12.40;4.78;;;22.80;86.80;;;;;;4978513;28;20546;-68
2022/06/10 09:28:14;;;;;;;14.05;4.53;;;22.90;86.70;;;;;;4975934;28;20061;-77
2022/06/10 09:30:45;;;;;;;14.20;4.30;;;22.90;86.80;;;;;;4994780;28;20380;-65
2022/06/10 09:33:14;;;;;;;11.80;4.18;;;22.70;86.70;;;;;;4995919;28;20049;-62
2022/06/10 09:36:01;;;;;;;9.30;3.22;;;23.00;86.90;;;;;;4994123;28;20129;-61
2022/06/10 09:38:35;;;;;;;10.88;4.07;;;22.90;83.40;;;;;;4992455;28;20407;-63
2022/06/10 09:41:19;;;;;;;10.77;4.47;;;23.10;87.30;;;;;;4995158;28;20076;-62
2022/06/10 09:44:00;;;;;;;8.35;3.97;;;22.80;85.80;;;;;;5053881;28;20049;-62
2022/06/10 09:46:48;;;;;;;12.63;4.00;;;23.00;87.10;;;;;;5072825;28;20048;-63
2022/06/10 09:49:26;;;;;;;9.15;3.75;;;23.20;87.20;;;;;;5073896;28;20033;-63
2022/06/10 09:52:26;;;;;;;10.82;4.35;;;23.00;84.60;;;;;;5045924;28;20044;-63
2022/06/10 09:55:13;;;;;;;10.25;3.55;;;22.80;87.00;;;;;;5035248;28;20128;-63
2022/06/10 09:58:04;;;;;;;8.98;3.65;;;22.80;83.40;;;;;;5073814;28;20135;-63
2022/06/10 10:00:35;;;;;;;9.50;3.70;;;23.00;86.80;;;;;;5073426;28;20052;-63
2022/06/10 10:03:33;;;;;;;9.82;4.30;;;23.00;86.90;;;;;;5073906;28;20110;-63
2022/06/10 10:06:08;;;;;;;9.45;3.80;;;23.30;87.10;;;;;;4991719;28;20078;-63
2022/06/10 10:08:49;;;;;;;9.00;4.10;;;23.10;86.80;;;;;;4975326;28;20050;-63
2022/06/10 10:11:59;;;;;;;13.00;4.35;;;23.10;83.60;;;;;;4960461;28;20062;-63
2022/06/10 10:14:48;;;;;;;6.93;3.50;;;23.00;87.00;;;;;;4988744;28;20503;-63
2022/06/10 10:17:38;;;;;;;10.40;4.70;;;22.90;84.50;;;;;;4933478;29;20055;-62
2022/06/10 10:20:28;;;;;;;8.48;3.90;;;23.10;83.40;;;;;;4934124;29;20084;-63
2022/06/10 10:22:57;;;;;;;8.40;4.10;;;22.80;87.00;;;;;;4934169;29;20047;-63
2022/06/10 10:25:24;;;;;;;9.40;3.90;;;23.20;87.40;;;;;;4917948;29;20454;-62
2022/06/10 10:27:50;;;;;;;7.50;3.95;;;22.80;87.40;;;;;;4917682;29;20490;-63
2022/06/10 10:30:31;;;;;;;10.55;4.00;;;23.40;84.80;;;;;;4905313;29;20055;-63
2022/06/10 10:33:02;;;;;;;10.25;4.28;;;23.00;87.30;;;;;;4934786;29;20095;-63
2022/06/10 10:35:44;;;;;;;10.02;3.47;;;22.90;87.50;;;;;;4918183;29;20135;-62
2022/06/10 10:38:13;;;;;;;11.18;4.03;;;23.30;84.30;;;;;;4934044;29;20410;-70
2022/06/10 10:40:43;;;;;;;11.68;3.70;;;23.00;84.70;;;;;;4928026;29;20066;-62
2022/06/10 10:43:20;;;;;;;15.65;4.13;;;23.00;87.80;;;;;;4935441;29;20063;-63
2022/06/10 10:46:24;;;;;;;13.25;4.13;;;23.10;87.40;;;;;;4953005;29;20103;-63
2022/06/10 10:48:50;;;;;;;12.18;3.50;;;23.00;87.50;;;;;;4939370;28;20898;-62
2022/06/10 10:51:19;;;;;;;9.50;4.22;;;23.20;84.70;;;;;;4975869;28;20046;-63
2022/06/10 10:53:54;;;;;;;12.25;3.55;;;23.20;87.40;;;;;;5013377;28;20053;-63
2022/06/10 10:56:35;;;;;;;9.15;3.45;;;23.30;87.30;;;;;;5054958;28;20048;-63
2022/06/10 10:59:01;;;;;;;11.10;3.60;;;23.30;87.20;;;;;;5051674;28;20090;-62
2022/06/10 11:01:45;;;;;;;10.05;3.20;;;23.20;87.20;;;;;;5085885;28;20048;-62
2022/06/10 11:04:34;;;;;;;8.07;3.17;;;23.50;87.30;;;;;;5069185;28;20044;-62
2022/06/10 11:07:18;;;;;;;11.38;4.50;;;23.50;87.20;;;;;;5032797;28;20091;-62
2022/06/10 11:09:48;;;;;;;7.95;3.20;;;23.50;85.00;;;;;;5056820;28;20065;-63
2022/06/10 11:12:25;;;;;;;9.70;3.60;;;23.50;87.00;;;;;;5038679;28;20110;-62
2022/06/10 11:15:03;;;;;;;9.23;3.40;;;23.60;87.60;;;;;;5072382;28;20061;-62
2022/06/10 11:17:30;;;;;;;6.55;3.22;;;23.70;87.50;;;;;;5059615;28;20049;-62
2022/06/10 11:19:59;;;;;;;8.93;3.60;;;23.60;84.60;;;;;;5055547;28;20117;-63
2022/06/10 11:22:39;;;;;;;9.63;3.92;;;23.90;84.40;;;;;;5056608;28;20049;-62
2022/06/10 11:25:15;;;;;;;8.43;3.20;;;23.60;87.40;;;;;;5059096;28;20055;-62
2022/06/10 11:27:49;;;;;;;6.75;3.70;;;23.60;83.60;;;;;;5056481;28;20052;-63
2022/06/10 11:30:22;;;;;;;7.85;3.40;;;23.60;87.60;;;;;;5056512;28;20049;-62
2022/06/10 11:32:48;;;;;;;13.25;4.05;;;23.60;87.40;;;;;;5061471;28;20086;-62
2022/06/10 11:35:57;;;;;;;7.65;3.42;;;23.90;86.00;;;;;;5055505;28;20040;-63
2022/06/10 11:38:26;;;;;;;5.95;2.90;;;23.80;87.40;;;;;;5038056;28;20053;-62
2022/06/10 11:40:57;;;;;;;7.63;3.35;;;24.10;87.40;;;;;;5022930;28;20047;-62
2022/06/10 11:43:34;;;;;;;7.20;3.30;;;24.10;85.10;;;;;;5076188;28;20106;-62
2022/06/10 11:46:17;;;;;;;6.60;3.45;;;23.90;87.30;;;;;;5038154;28;21043;-62
2022/06/10 11:48:59;;;;;;;7.13;3.17;;;24.10;83.60;;;;;;5039393;28;20037;-62
2022/06/10 11:51:41;;;;;;;5.90;3.13;;;24.10;87.50;;;;;;5066818;28;20045;-62
2022/06/10 11:54:17;;;;;;;6.10;3.03;;;24.10;87.30;;;;;;5054975;28;20534;-63
2022/06/10 12:00:25;;;;;;;8.23;3.17;;;24.20;87.20;;;;;;5034401;28;20136;-62
2022/06/10 12:03:14;;;;;;;7.97;3.17;;;24.00;83.50;;;;;;5017002;28;20101;-62
2022/06/10 12:05:48;;;;;;;9.20;3.78;;;23.90;87.00;;;;;;4984514;28;20061;-62
2022/06/10 12:08:27;;;;;;;7.65;3.35;;;24.20;83.40;;;;;;5022874;28;20049;-62
2022/06/10 12:10:58;;;;;;;10.07;3.67;;;24.10;83.00;;;;;;5000794;28;20112;-62
2022/06/10 12:13:23;;;;;;;8.88;3.10;;;24.20;87.40;;;;;;5013512;28;20049;-62
2022/06/10 12:15:53;;;;;;;8.45;3.55;;;24.10;86.90;;;;;;5017092;28;20061;-64
2022/06/10 12:18:19;;;;;;;5.97;3.08;;;24.10;84.80;;;;;;5035811;28;20045;-65
2022/06/10 12:20:46;;;;;;;11.32;3.60;;;23.80;87.80;;;;;;5016040;28;20510;-65
2022/06/10 12:23:24;;;;;;;11.05;3.80;;;23.90;87.60;;;;;;5014362;28;20485;-65
2022/06/10 12:26:05;;;;;;;11.95;3.90;;;24.00;83.60;;;;;;5018048;28;20600;-65
2022/06/10 12:28:32;;;;;;;8.77;3.40;;;24.10;84.30;;;;;;5032760;28;20067;-65
2022/06/10 12:31:28;;;;;;;9.63;3.63;;;23.80;88.10;;;;;;5000493;28;20089;-65
2022/06/10 12:34:22;;;;;;;12.02;3.75;;;23.90;88.20;;;;;;5016896;28;20122;-65
2022/06/10 12:36:56;;;;;;;9.68;3.45;;;24.00;88.30;;;;;;5014863;28;20060;-64
2022/06/10 12:39:28;;;;;;;9.43;3.50;;;24.10;88.10;;;;;;5056491;28;20041;-65
2022/06/10 12:42:19;;;;;;;9.40;3.78;;;24.00;85.50;;;;;;5062703;28;20087;-62
2022/06/10 12:44:56;;;;;;;10.20;3.00;;;24.20;84.00;;;;;;5033829;28;20049;-62
2022/06/10 12:47:34;;;;;;;6.85;2.85;;;23.90;88.20;;;;;;5057720;28;20051;-62
2022/06/10 12:50:01;;;;;;;12.23;3.78;;;24.00;85.80;;;;;;5072217;28;20048;-62
2022/06/10 12:52:54;;;;;;;8.77;3.45;;;24.10;85.50;;;;;;5041178;28;20125;-62
2022/06/10 12:55:26;;;;;;;11.48;3.88;;;24.10;88.50;;;;;;5074844;28;20045;-61
2022/06/10 12:57:53;;;;;;;9.35;3.67;;;23.90;88.20;;;;;;5041549;28;20097;-63
2022/06/10 13:00:19;;;;;;;10.43;3.92;;;24.20;88.90;;;;;;5056033;28;20040;-62
2022/06/10 13:02:44;;;;;;;9.98;3.75;;;24.10;88.50;;;;;;5072149;28;20045;-63
2022/06/10 13:05:24;;;;;;;11.43;3.88;;;24.00;85.70;;;;;;5064704;28;20170;-63
2022/06/10 13:07:50;;;;;;;16.67;4.63;;;24.10;88.70;;;;;;5074451;28;20044;-62
2022/06/10 13:10:34;;;;;;;13.02;4.72;;;24.30;86.10;;;;;;5057113;28;20044;-62
2022/06/10 13:13:21;;;;;;;32.40;21.73;;;24.20;86.30;;;;;;5073030;28;20049;-62
2022/06/10 13:15:46;;;;;;;14.65;6.85;;;24.10;85.10;;;;;;5059877;28;20057;-62
2022/06/10 13:18:15;;;;;;;14.48;5.30;;;24.50;85.80;;;;;;5052989;28;20057;-62
2022/06/10 13:20:41;;;;;;;13.68;5.75;;;24.40;86.50;;;;;;5036548;28;20172;-62
2022/06/10 13:23:16;;;;;;;14.38;4.78;;;24.30;86.00;;;;;;5054078;28;20049;-62
2022/06/10 13:25:44;;;;;;;10.93;4.07;;;24.40;88.70;;;;;;5068974;28;20390;-62